sensor_id;sensor_type;location;lat;lon;timestamp;pressure;altitude;pressure_sealevel;temperature;humidity
30081;BME280;16902;50.816;12.828;2023-02-21T00:00:06;97829.44;;;7.99;100.00
30081;BME280;16902;50.816;12.828;2023-02-21T00:05:26;97844.00;;;8.01;100.00
30081;BME280;16902;50.816;12.828;2023-02-21T00:10:47;97837.38;;;7.98;100.00
30081;BME280;16902;50.816;12.828;2023-02-21T00:16:07;97860.03;;;7.96;100.00
30081;BME280;16902;50.816;12.828;2023-02-21T00:21:28;97852.44;;;7.94;100.00
30081;BME280;16902;50.816;12.828;2023-02-21T00:26:49;97838.78;;;7.92;100.00
30081;BME280;16902;50.816;12.828;2023-02-21T00:32:09;97855.03;;;7.94;100.00
30081;BME280;16902;50.816;12.828;2023-02-21T00:37:29;97850.31;;;7.90;100.00
30081;BME280;16902;50.816;12.828;2023-02-21T00:42:49;97846.91;;;7.89;100.00
30081;BME280;16902;50.816;12.828;2023-02-21T00:48:10;97825.84;;;7.84;100.00
30081;BME280;16902;50.816;12.828;2023-02-21T00:53:31;97831.84;;;7.85;100.00
30081;BME280;16902;50.816;12.828;2023-02-21T00:58:51;97820.50;;;7.86;100.00
30081;BME280;16902;50.816;12.828;2023-02-21T01:04:12;97807.38;;;7.87;100.00
30081;BME280;16902;50.816;12.828;2023-02-21T01:09:32;97798.66;;;7.88;100.00
30081;BME280;16902;50.816;12.828;2023-02-21T01:14:53;97806.56;;;7.87;100.00
30081;BME280;16902;50.816;12.828;2023-02-21T01:20:14;97801.69;;;7.92;100.00
30081;BME280;16902;50.816;12.828;2023-02-21T01:25:34;97798.16;;;7.93;100.00
30081;BME280;16902;50.816;12.828;2023-02-21T01:30:54;97802.19;;;7.95;100.00
30081;BME280;16902;50.816;12.828;2023-02-21T01:36:15;97800.09;;;7.99;100.00
30081;BME280;16902;50.816;12.828;2023-02-21T01:41:35;97791.34;;;8.00;100.00
30081;BME280;16902;50.816;12.828;2023-02-21T01:46:57;97788.25;;;7.96;100.00
30081;BME280;16902;50.816;12.828;2023-02-21T01:52:17;97771.25;;;7.94;100.00
30081;BME280;16902;50.816;12.828;2023-02-21T01:57:39;97773.19;;;7.92;100.00
30081;BME280;16902;50.816;12.828;2023-02-21T02:03:02;97764.47;;;7.93;100.00
30081;BME280;16902;50.816;12.828;2023-02-21T02:08:26;97765.28;;;7.93;100.00
30081;BME280;16902;50.816;12.828;2023-02-21T02:40:35;97763.28;;;8.12;100.00
30081;BME280;16902;50.816;12.828;2023-02-21T02:45:52;97761.53;;;8.12;100.00
30081;BME280;16902;50.816;12.828;2023-02-21T02:50:56;97756.19;;;8.14;100.00
30081;BME280;16902;50.816;12.828;2023-02-21T02:56:02;97763.13;;;8.21;100.00
30081;BME280;16902;50.816;12.828;2023-02-21T03:06:21;97737.66;;;8.25;100.00
30081;BME280;16902;50.816;12.828;2023-02-21T03:11:26;97741.88;;;8.26;100.00
30081;BME280;16902;50.816;12.828;2023-02-21T03:16:53;97738.47;;;8.25;100.00
30081;BME280;16902;50.816;12.828;2023-02-21T03:21:59;97738.66;;;8.24;100.00
30081;BME280;16902;50.816;12.828;2023-02-21T03:27:05;97724.06;;;8.23;100.00
30081;BME280;16902;50.816;12.828;2023-02-21T03:33:00;97715.97;;;8.18;100.00
30081;BME280;16902;50.816;12.828;2023-02-21T03:38:03;97722.78;;;8.19;100.00
30081;BME280;16902;50.816;12.828;2023-02-21T03:43:05;97725.06;;;8.22;100.00
30081;BME280;16902;50.816;12.828;2023-02-21T03:48:18;97731.69;;;8.24;100.00
30081;BME280;16902;50.816;12.828;2023-02-21T03:53:36;97741.72;;;8.28;100.00
30081;BME280;16902;50.816;12.828;2023-02-21T03:58:39;97746.56;;;8.31;100.00
30081;BME280;16902;50.816;12.828;2023-02-21T04:03:41;97750.63;;;8.33;100.00
30081;BME280;16902;50.816;12.828;2023-02-21T04:08:43;97747.06;;;8.34;100.00
30081;BME280;16902;50.816;12.828;2023-02-21T04:13:45;97737.34;;;8.36;100.00
30081;BME280;16902;50.816;12.828;2023-02-21T04:18:46;97739.94;;;8.36;100.00
30081;BME280;16902;50.816;12.828;2023-02-21T04:23:50;97744.16;;;8.37;100.00
30081;BME280;16902;50.816;12.828;2023-02-21T04:28:52;97745.59;;;8.40;100.00
30081;BME280;16902;50.816;12.828;2023-02-21T04:33:55;97740.59;;;8.38;100.00
30081;BME280;16902;50.816;12.828;2023-02-21T04:39:13;97744.81;;;8.39;100.00
30081;BME280;16902;50.816;12.828;2023-02-21T04:44:14;97744.97;;;8.38;100.00
30081;BME280;16902;50.816;12.828;2023-02-21T04:49:18;97744.16;;;8.37;100.00
30081;BME280;16902;50.816;12.828;2023-02-21T04:54:20;97737.34;;;8.36;100.00
30081;BME280;16902;50.816;12.828;2023-02-21T04:59:21;97734.09;;;8.34;100.00
30081;BME280;16902;50.816;12.828;2023-02-21T05:04:23;97734.09;;;8.34;100.00
30081;BME280;16902;50.816;12.828;2023-02-21T05:09:25;97731.31;;;8.36;100.00
30081;BME280;16902;50.816;12.828;2023-02-21T05:14:26;97731.19;;;8.37;100.00
30081;BME280;16902;50.816;12.828;2023-02-21T05:19:28;97725.31;;;8.35;100.00
30081;BME280;16902;50.816;12.828;2023-02-21T05:24:30;97728.09;;;8.34;100.00
30081;BME280;16902;50.816;12.828;2023-02-21T05:29:31;97724.38;;;8.36;100.00
30081;BME280;16902;50.816;12.828;2023-02-21T05:34:33;97719.31;;;8.35;100.00
30081;BME280;16902;50.816;12.828;2023-02-21T05:39:35;97710.25;;;8.31;100.00
30081;BME280;16902;50.816;12.828;2023-02-21T05:44:36;97711.56;;;8.27;100.00
30081;BME280;16902;50.816;12.828;2023-02-21T05:49:39;97709.50;;;8.22;100.00
30081;BME280;16902;50.816;12.828;2023-02-21T05:54:41;97716.94;;;8.17;100.00
30081;BME280;16902;50.816;12.828;2023-02-21T05:59:43;97722.78;;;8.19;100.00
30081;BME280;16902;50.816;12.828;2023-02-21T06:04:45;97714.34;;;8.17;100.00
30081;BME280;16902;50.816;12.828;2023-02-21T06:09:47;97725.69;;;8.16;100.00
30081;BME280;16902;50.816;12.828;2023-02-21T06:14:48;97709.16;;;8.17;100.00
30081;BME280;16902;50.816;12.828;2023-02-21T06:19:50;97721.47;;;8.23;100.00
30081;BME280;16902;50.816;12.828;2023-02-21T06:24:52;97733.59;;;8.31;100.00
30081;BME280;16902;50.816;12.828;2023-02-21T06:29:53;97745.97;;;8.37;100.00
30081;BME280;16902;50.816;12.828;2023-02-21T06:34:55;97753.25;;;8.41;100.00
30081;BME280;16902;50.816;12.828;2023-02-21T06:39:57;97770.88;;;8.46;100.00
30081;BME280;16902;50.816;12.828;2023-02-21T06:44:58;97785.81;;;8.52;100.00
30081;BME280;16902;50.816;12.828;2023-02-21T06:50:00;97781.72;;;8.58;100.00
30081;BME280;16902;50.816;12.828;2023-02-21T06:55:02;97790.63;;;8.63;100.00
30081;BME280;16902;50.816;12.828;2023-02-21T07:00:05;97797.13;;;8.59;100.00
30081;BME280;16902;50.816;12.828;2023-02-21T07:05:07;97809.59;;;8.64;100.00
30081;BME280;16902;50.816;12.828;2023-02-21T07:10:09;97813.34;;;8.61;100.00
30081;BME280;16902;50.816;12.828;2023-02-21T07:15:10;97817.69;;;8.69;100.00
30081;BME280;16902;50.816;12.828;2023-02-21T07:20:12;97828.56;;;8.64;100.00
30081;BME280;16902;50.816;12.828;2023-02-21T07:25:15;97817.41;;;8.64;100.00
30081;BME280;16902;50.816;12.828;2023-02-21T07:30:17;97831.97;;;8.65;100.00
30081;BME280;16902;50.816;12.828;2023-02-21T07:35:19;97829.72;;;8.62;100.00
30081;BME280;16902;50.816;12.828;2023-02-21T07:40:21;97834.56;;;8.65;100.00
30081;BME280;16902;50.816;12.828;2023-02-21T07:45:23;97836.22;;;8.66;100.00
30081;BME280;16902;50.816;12.828;2023-02-21T07:50:24;97851.78;;;8.66;100.00
30081;BME280;16902;50.816;12.828;2023-02-21T07:55:26;97853.41;;;8.67;100.00
30081;BME280;16902;50.816;12.828;2023-02-21T08:00:28;97860.22;;;8.68;100.00
30081;BME280;16902;50.816;12.828;2023-02-21T08:05:29;97869.94;;;8.74;100.00
30081;BME280;16902;50.816;12.828;2023-02-21T08:10:31;97873.50;;;8.73;100.00
30081;BME280;16902;50.816;12.828;2023-02-21T08:15:33;97872.69;;;8.72;100.00
30081;BME280;16902;50.816;12.828;2023-02-21T08:20:34;97868.31;;;8.65;100.00
30081;BME280;16902;50.816;12.828;2023-02-21T08:25:36;97872.69;;;8.64;100.00
30081;BME280;16902;50.816;12.828;2023-02-21T08:30:37;97857.44;;;8.69;100.00
30081;BME280;16902;50.816;12.828;2023-02-21T08:35:39;97867.00;;;8.85;100.00
30081;BME280;16902;50.816;12.828;2023-02-21T08:40:41;97860.16;;;8.92;100.00
30081;BME280;16902;50.816;12.828;2023-02-21T08:45:43;97860.28;;;8.99;100.00
30081;BME280;16902;50.816;12.828;2023-02-21T08:50:44;97861.53;;;9.19;100.00
30081;BME280;16902;50.816;12.828;2023-02-21T08:55:46;97861.84;;;9.24;100.00
30081;BME280;16902;50.816;12.828;2023-02-21T09:00:48;97873.22;;;9.23;100.00
30081;BME280;16902;50.816;12.828;2023-02-21T09:05:52;97863.28;;;9.27;100.00
30081;BME280;16902;50.816;12.828;2023-02-21T09:10:54;97858.44;;;9.24;100.00
30081;BME280;16902;50.816;12.828;2023-02-21T09:16:03;97866.84;;;9.34;100.00
30081;BME280;16902;50.816;12.828;2023-02-21T09:21:06;97859.56;;;9.30;100.00
30081;BME280;16902;50.816;12.828;2023-02-21T09:26:07;97857.75;;;9.30;100.00
30081;BME280;16902;50.816;12.828;2023-02-21T09:31:09;97854.94;;;9.48;100.00
30081;BME280;16902;50.816;12.828;2023-02-21T09:36:11;97858.44;;;9.55;100.00
30081;BME280;16902;50.816;12.828;2023-02-21T09:41:13;97855.72;;;9.79;100.00
30081;BME280;16902;50.816;12.828;2023-02-21T09:46:19;97843.81;;;9.85;100.00
30081;BME280;16902;50.816;12.828;2023-02-21T09:51:22;97849.63;;;9.64;100.00
30081;BME280;16902;50.816;12.828;2023-02-21T09:56:32;97849.88;;;9.77;100.00
30081;BME280;16902;50.816;12.828;2023-02-21T10:12:39;97848.53;;;10.04;100.00
30081;BME280;16902;50.816;12.828;2023-02-21T10:17:51;97856.03;;;10.31;100.00
30081;BME280;16902;50.816;12.828;2023-02-21T10:22:55;97864.38;;;10.26;100.00
30081;BME280;16902;50.816;12.828;2023-02-21T10:27:58;97874.47;;;10.21;100.00
30081;BME280;16902;50.816;12.828;2023-02-21T10:33:01;97875.72;;;10.02;100.00
30081;BME280;16902;50.816;12.828;2023-02-21T10:38:13;97878.03;;;9.97;100.00
30081;BME280;16902;50.816;12.828;2023-02-21T10:43:43;97879.47;;;10.22;100.00
30081;BME280;16902;50.816;12.828;2023-02-21T10:48:47;97879.50;;;10.45;100.00
30081;BME280;16902;50.816;12.828;2023-02-21T10:53:50;97884.06;;;10.43;100.00
30081;BME280;16902;50.816;12.828;2023-02-21T11:09:32;97871.59;;;10.53;100.00
30081;BME280;16902;50.816;12.828;2023-02-21T11:14:35;97878.75;;;10.74;100.00
30081;BME280;16902;50.816;12.828;2023-02-21T11:19:47;97863.22;;;10.81;100.00
30081;BME280;16902;50.816;12.828;2023-02-21T11:24:58;97861.84;;;10.55;100.00
30081;BME280;16902;50.816;12.828;2023-02-21T11:30:08;97864.66;;;10.69;100.00
30081;BME280;16902;50.816;12.828;2023-02-21T11:35:25;97857.19;;;10.80;100.00
30081;BME280;16902;50.816;12.828;2023-02-21T11:45:38;97846.06;;;10.34;100.00
30081;BME280;16902;50.816;12.828;2023-02-21T11:50:45;97832.97;;;10.27;100.00
30081;BME280;16902;50.816;12.828;2023-02-21T11:56:18;97840.44;;;10.45;100.00
30081;BME280;16902;50.816;12.828;2023-02-21T12:01:29;97838.75;;;10.67;100.00
30081;BME280;16902;50.816;12.828;2023-02-21T12:06:47;97837.16;;;10.81;100.00
30081;BME280;16902;50.816;12.828;2023-02-21T12:17:51;97831.66;;;10.46;100.00
30081;BME280;16902;50.816;12.828;2023-02-21T12:28:43;97823.00;;;10.31;100.00
30081;BME280;16902;50.816;12.828;2023-02-21T12:39:33;97804.09;;;10.67;100.00
30081;BME280;16902;50.816;12.828;2023-02-21T12:44:57;97806.88;;;10.50;100.00
30081;BME280;16902;50.816;12.828;2023-02-21T12:50:12;97797.63;;;10.48;100.00
30081;BME280;16902;50.816;12.828;2023-02-21T12:55:20;97789.19;;;10.31;100.00
30081;BME280;16902;50.816;12.828;2023-02-21T13:00:31;97789.00;;;10.47;100.00
30081;BME280;16902;50.816;12.828;2023-02-21T13:05:45;97777.59;;;10.48;100.00
30081;BME280;16902;50.816;12.828;2023-02-21T13:10:51;97777.59;;;10.48;100.00
30081;BME280;16902;50.816;12.828;2023-02-21T13:15:54;97773.38;;;10.33;100.00
30081;BME280;16902;50.816;12.828;2023-02-21T13:31:35;97776.38;;;10.44;100.00
30081;BME280;16902;50.816;12.828;2023-02-21T13:36:44;97767.03;;;10.35;100.00
30081;BME280;16902;50.816;12.828;2023-02-21T13:41:50;97764.88;;;10.53;100.00
30081;BME280;16902;50.816;12.828;2023-02-21T13:57:35;97759.09;;;11.17;100.00
30081;BME280;16902;50.816;12.828;2023-02-21T14:08:05;97755.97;;;10.63;100.00
30081;BME280;16902;50.816;12.828;2023-02-21T14:13:19;97760.38;;;10.47;100.00
30081;BME280;16902;50.816;12.828;2023-02-21T14:18:28;97752.75;;;10.46;100.00
30081;BME280;16902;50.816;12.828;2023-02-21T14:23:40;97765.97;;;10.59;100.00
30081;BME280;16902;50.816;12.828;2023-02-21T14:33:59;97753.03;;;10.51;100.00
30081;BME280;16902;50.816;12.828;2023-02-21T14:39:01;97756.72;;;10.57;100.00
30081;BME280;16902;50.816;12.828;2023-02-21T14:44:25;97751.22;;;10.51;100.00
30081;BME280;16902;50.816;12.828;2023-02-21T15:00:32;97760.03;;;10.36;100.00
30081;BME280;16902;50.816;12.828;2023-02-21T15:05:49;97762.16;;;10.32;100.00
30081;BME280;16902;50.816;12.828;2023-02-21T15:10:58;97756.34;;;10.30;100.00
30081;BME280;16902;50.816;12.828;2023-02-21T15:16:06;97759.75;;;10.31;100.00
30081;BME280;16902;50.816;12.828;2023-02-21T15:26:17;97752.22;;;10.50;100.00
30081;BME280;16902;50.816;12.828;2023-02-21T15:31:20;97754.09;;;10.42;100.00
30081;BME280;16902;50.816;12.828;2023-02-21T15:36:22;97755.56;;;10.44;100.00
30081;BME280;16902;50.816;12.828;2023-02-21T15:46:44;97753.91;;;10.28;100.00
30081;BME280;16902;50.816;12.828;2023-02-21T15:51:47;97759.34;;;10.19;100.00
30081;BME280;16902;50.816;12.828;2023-02-21T15:57:11;97764.78;;;10.09;100.00
30081;BME280;16902;50.816;12.828;2023-02-21T16:02:21;97771.16;;;10.07;100.00
30081;BME280;16902;50.816;12.828;2023-02-21T16:07:28;97776.44;;;9.98;100.00
30081;BME280;16902;50.816;12.828;2023-02-21T16:12:40;97776.44;;;9.98;100.00
30081;BME280;16902;50.816;12.828;2023-02-21T16:17:53;97773.44;;;9.87;100.00
30081;BME280;16902;50.816;12.828;2023-02-21T16:23:23;97772.22;;;9.74;100.00
30081;BME280;16902;50.816;12.828;2023-02-21T16:28:27;97777.88;;;9.55;100.00
30081;BME280;16902;50.816;12.828;2023-02-21T16:33:29;97776.78;;;9.49;100.00
30081;BME280;16902;50.816;12.828;2023-02-21T16:38:31;97785.91;;;9.45;100.00
30081;BME280;16902;50.816;12.828;2023-02-21T16:43:32;97796.69;;;9.34;100.00
30081;BME280;16902;50.816;12.828;2023-02-21T16:48:37;97791.81;;;9.31;100.00
30081;BME280;16902;50.816;12.828;2023-02-21T16:53:38;97797.22;;;9.21;100.00
30081;BME280;16902;50.816;12.828;2023-02-21T16:58:43;97807.25;;;8.93;100.00
30081;BME280;16902;50.816;12.828;2023-02-21T17:03:47;97804.09;;;8.67;100.00
30081;BME280;16902;50.816;12.828;2023-02-21T17:08:49;97803.78;;;8.62;100.00
30081;BME280;16902;50.816;12.828;2023-02-21T17:13:51;97809.13;;;8.36;100.00
30081;BME280;16902;50.816;12.828;2023-02-21T17:18:53;97814.19;;;8.13;100.00
30081;BME280;16902;50.816;12.828;2023-02-21T17:23:55;97812.22;;;8.31;100.00
30081;BME280;16902;50.816;12.828;2023-02-21T17:28:57;97813.38;;;8.29;100.00
30081;BME280;16902;50.816;12.828;2023-02-21T17:33:59;97818.41;;;8.14;100.00
30081;BME280;16902;50.816;12.828;2023-02-21T17:39:01;97811.94;;;7.93;100.00
30081;BME280;16902;50.816;12.828;2023-02-21T17:44:03;97816.78;;;7.80;100.00
30081;BME280;16902;50.816;12.828;2023-02-21T17:49:04;97816.88;;;7.54;100.00
30081;BME280;16902;50.816;12.828;2023-02-21T17:54:06;97821.72;;;7.41;100.00
30081;BME280;16902;50.816;12.828;2023-02-21T17:59:08;97828.28;;;7.19;100.00
30081;BME280;16902;50.816;12.828;2023-02-21T18:04:10;97835.28;;;7.35;100.00
30081;BME280;16902;50.816;12.828;2023-02-21T18:09:12;97834.50;;;7.42;100.00
30081;BME280;16902;50.816;12.828;2023-02-21T18:14:14;97837.66;;;7.70;100.00
30081;BME280;16902;50.816;12.828;2023-02-21T18:19:15;97836.84;;;7.86;100.00
30081;BME280;16902;50.816;12.828;2023-02-21T18:24:17;97841.38;;;7.76;100.00
30081;BME280;16902;50.816;12.828;2023-02-21T18:29:19;97839.13;;;7.81;100.00
30081;BME280;16902;50.816;12.828;2023-02-21T18:34:21;97837.66;;;7.87;100.00
30081;BME280;16902;50.816;12.828;2023-02-21T18:39:23;97842.16;;;7.68;100.00
30081;BME280;16902;50.816;12.828;2023-02-21T18:44:25;97842.50;;;7.65;100.00
30081;BME280;16902;50.816;12.828;2023-02-21T18:49:26;97847.69;;;7.73;100.00
30081;BME280;16902;50.816;12.828;2023-02-21T18:54:28;97844.88;;;7.42;100.00
30081;BME280;16902;50.816;12.828;2023-02-21T18:59:30;97844.41;;;7.47;100.00
30081;BME280;16902;50.816;12.828;2023-02-21T19:04:34;97841.00;;;7.46;100.00
30081;BME280;16902;50.816;12.828;2023-02-21T19:09:36;97844.44;;;7.55;100.00
30081;BME280;16902;50.816;12.828;2023-02-21T19:14:37;97843.16;;;7.76;100.00
30081;BME280;16902;50.816;12.828;2023-02-21T19:19:39;97845.00;;;8.08;100.00
30081;BME280;16902;50.816;12.828;2023-02-21T19:24:41;97839.47;;;8.27;100.00
30081;BME280;16902;50.816;12.828;2023-02-21T19:29:42;97846.59;;;8.33;100.00
30081;BME280;16902;50.816;12.828;2023-02-21T19:34:47;97846.63;;;8.41;100.00
30081;BME280;16902;50.816;12.828;2023-02-21T19:39:50;97846.13;;;8.46;100.00
30081;BME280;16902;50.816;12.828;2023-02-21T19:44:52;97857.00;;;8.41;100.00
30081;BME280;16902;50.816;12.828;2023-02-21T19:49:54;97862.53;;;8.46;100.00
30081;BME280;16902;50.816;12.828;2023-02-21T19:54:55;97865.44;;;8.43;100.00
30081;BME280;16902;50.816;12.828;2023-02-21T19:59:58;97862.19;;;8.41;100.00
30081;BME280;16902;50.816;12.828;2023-02-21T20:05:00;97862.00;;;8.35;100.00
30081;BME280;16902;50.816;12.828;2023-02-21T20:10:02;97869.31;;;8.23;100.00
30081;BME280;16902;50.816;12.828;2023-02-21T20:15:04;97869.13;;;8.33;100.00
30081;BME280;16902;50.816;12.828;2023-02-21T20:20:07;97881.66;;;8.37;100.00
30081;BME280;16902;50.816;12.828;2023-02-21T20:25:12;97882.78;;;8.43;100.00
30081;BME280;16902;50.816;12.828;2023-02-21T20:30:15;97880.97;;;8.27;100.00
30081;BME280;16902;50.816;12.828;2023-02-21T20:35:17;97878.53;;;8.17;100.00
30081;BME280;16902;50.816;12.828;2023-02-21T20:40:19;97873.81;;;7.96;100.00
30081;BME280;16902;50.816;12.828;2023-02-21T20:45:21;97869.56;;;7.87;100.00
30081;BME280;16902;50.816;12.828;2023-02-21T20:50:24;97871.22;;;7.88;100.00
30081;BME280;16902;50.816;12.828;2023-02-21T20:55:25;97874.13;;;8.02;100.00
30081;BME280;16902;50.816;12.828;2023-02-21T21:00:27;97872.34;;;8.02;100.00
30081;BME280;16902;50.816;12.828;2023-02-21T21:05:30;97883.25;;;8.22;100.00
30081;BME280;16902;50.816;12.828;2023-02-21T21:10:32;97876.28;;;8.22;100.00
30081;BME280;16902;50.816;12.828;2023-02-21T21:15:34;97878.53;;;8.17;100.00
30081;BME280;16902;50.816;12.828;2023-02-21T21:20:36;97883.22;;;8.06;100.00
30081;BME280;16902;50.816;12.828;2023-02-21T21:25:41;97888.72;;;7.94;100.00
30081;BME280;16902;50.816;12.828;2023-02-21T21:30:43;97881.41;;;7.90;100.00
30081;BME280;16902;50.816;12.828;2023-02-21T21:35:45;97879.63;;;7.82;100.00
30081;BME280;16902;50.816;12.828;2023-02-21T21:40:46;97896.94;;;7.82;100.00
30081;BME280;16902;50.816;12.828;2023-02-21T21:45:49;97884.47;;;7.77;100.00
30081;BME280;16902;50.816;12.828;2023-02-21T21:50:50;97885.13;;;7.79;100.00
30081;BME280;16902;50.816;12.828;2023-02-21T21:55:52;97893.84;;;7.70;100.00
30081;BME280;16902;50.816;12.828;2023-02-21T22:00:54;97894.00;;;7.68;100.00
30081;BME280;16902;50.816;12.828;2023-02-21T22:05:56;97892.25;;;7.69;100.00
30081;BME280;16902;50.816;12.828;2023-02-21T22:11:01;97884.91;;;7.56;100.00
30081;BME280;16902;50.816;12.828;2023-02-21T22:16:02;97882.78;;;7.52;100.00
30081;BME280;16902;50.816;12.828;2023-02-21T22:21:08;97879.56;;;7.50;100.00
30081;BME280;16902;50.816;12.828;2023-02-21T22:26:19;97880.03;;;7.45;100.00
30081;BME280;16902;50.816;12.828;2023-02-21T22:31:21;97880.63;;;7.39;100.00
30081;BME280;16902;50.816;12.828;2023-02-21T22:36:24;97880.19;;;7.52;100.00
30081;BME280;16902;50.816;12.828;2023-02-21T22:41:28;97874.38;;;7.58;100.00
30081;BME280;16902;50.816;12.828;2023-02-21T22:46:43;97871.81;;;7.66;100.00
30081;BME280;16902;50.816;12.828;2023-02-21T22:51:45;97870.50;;;7.62;100.00
30081;BME280;16902;50.816;12.828;2023-02-21T22:56:47;97875.22;;;7.66;100.00
30081;BME280;16902;50.816;12.828;2023-02-21T23:01:52;97867.09;;;7.61;100.00
30081;BME280;16902;50.816;12.828;2023-02-21T23:06:57;97863.53;;;7.62;100.00
30081;BME280;16902;50.816;12.828;2023-02-21T23:11:59;97860.63;;;7.65;100.00
30081;BME280;16902;50.816;12.828;2023-02-21T23:17:01;97860.56;;;7.49;100.00
30081;BME280;16902;50.816;12.828;2023-02-21T23:22:03;97851.06;;;7.50;100.00
30081;BME280;16902;50.816;12.828;2023-02-21T23:27:06;97843.41;;;7.40;100.00
30081;BME280;16902;50.816;12.828;2023-02-21T23:32:09;97853.16;;;7.46;100.00
30081;BME280;16902;50.816;12.828;2023-02-21T23:37:10;97848.75;;;7.38;100.00
30081;BME280;16902;50.816;12.828;2023-02-21T23:42:13;97847.09;;;7.29;100.00
30081;BME280;16902;50.816;12.828;2023-02-21T23:47:17;97847.94;;;7.38;100.00
30081;BME280;16902;50.816;12.828;2023-02-21T23:52:20;97849.59;;;7.55;100.00
30081;BME280;16902;50.816;12.828;2023-02-21T23:57:25;97837.09;;;7.42;100.00
